Map

Track Data

SID SEASON NUMBER BASIN SUBBASIN NAME ISO_TIME NATURE LAT LON WMO_WIND WMO_PRES WMO_AGENCY TRACK_TYPE DIST2LAND LANDFALL IFLAG USA_AGENCY USA_ATCF_ID USA_LAT USA_LON USA_RECORD USA_STATUS USA_WIND USA_PRES USA_SSHS USA_R34_NE USA_R34_SE USA_R34_SW USA_R34_NW USA_R50_NE USA_R50_SE USA_R50_SW USA_R50_NW USA_R64_NE USA_R64_SE USA_R64_SW USA_R64_NW USA_POCI USA_ROCI USA_RMW USA_EYE TOKYO_LAT TOKYO_LON TOKYO_GRADE TOKYO_WIND TOKYO_PRES TOKYO_R50_DIR TOKYO_R50_LONG TOKYO_R50_SHORT TOKYO_R30_DIR TOKYO_R30_LONG TOKYO_R30_SHORT TOKYO_LAND CMA_LAT CMA_LON CMA_CAT CMA_WIND CMA_PRES HKO_LAT HKO_LON HKO_CAT HKO_WIND HKO_PRES NEWDELHI_LAT NEWDELHI_LON NEWDELHI_GRADE NEWDELHI_WIND NEWDELHI_PRES NEWDELHI_CI NEWDELHI_DP NEWDELHI_POCI REUNION_LAT REUNION_LON REUNION_TYPE REUNION_WIND REUNION_PRES REUNION_TNUM REUNION_CI REUNION_RMW REUNION_R34_NE REUNION_R34_SE REUNION_R34_SW REUNION_R34_NW REUNION_R50_NE REUNION_R50_SE REUNION_R50_SW REUNION_R50_NW REUNION_R64_NE REUNION_R64_SE REUNION_R64_SW REUNION_R64_NW BOM_LAT BOM_LON BOM_TYPE BOM_WIND BOM_PRES BOM_TNUM BOM_CI BOM_RMW BOM_R34_NE BOM_R34_SE BOM_R34_SW BOM_R34_NW BOM_R50_NE BOM_R50_SE BOM_R50_SW BOM_R50_NW BOM_R64_NE BOM_R64_SE BOM_R64_SW BOM_R64_NW BOM_ROCI BOM_POCI BOM_EYE BOM_POS_METHOD BOM_PRES_METHOD NADI_LAT NADI_LON NADI_CAT NADI_WIND NADI_PRES WELLINGTON_LAT WELLINGTON_LON WELLINGTON_WIND WELLINGTON_PRES DS824_LAT DS824_LON DS824_STAGE DS824_WIND DS824_PRES TD9636_LAT TD9636_LON TD9636_STAGE TD9636_WIND TD9636_PRES TD9635_LAT TD9635_LON TD9635_WIND TD9635_PRES TD9635_ROCI NEUMANN_LAT NEUMANN_LON NEUMANN_CLASS NEUMANN_WIND NEUMANN_PRES MLC_LAT MLC_LON MLC_CLASS MLC_WIND MLC_PRES USA_GUST BOM_GUST BOM_GUST_PER REUNION_GUST REUNION_GUST_PER USA_SEAHGT USA_SEARAD_NE USA_SEARAD_SE USA_SEARAD_SW USA_SEARAD_NW STORM_SPEED STORM_DIR
1992247N10258 1992 81 EP MM ORLENE 1992-09-02 18:00:00 TS 9.90000 -102.500 30 1009 hurdat_epa main 819 819 O_____________ hurdat_epa EP171992 9.90000 -102.500 TD 30 1009 -1 13 278
1992247N10258 1992 81 EP MM ORLENE 1992-09-02 21:00:00 TS 9.99025 -103.150 main 835 835 P_____________ EP171992 9.99025 -103.150 TD 32 1007 -1 13 279
1992247N10258 1992 81 EP MM ORLENE 1992-09-03 00:00:00 TS 10.1000 -103.800 35 1005 hurdat_epa main 857 857 O_____________ hurdat_epa EP171992 10.1000 -103.800 TS 35 1005 0 13 281
1992247N10258 1992 81 EP MM ORLENE 1992-09-03 03:00:00 TS 10.2424 -104.450 main 875 865 P_____________ EP171992 10.2424 -104.450 TS 37 1003 0 13 283
1992247N10258 1992 81 EP MM ORLENE 1992-09-03 06:00:00 TS 10.4000 -105.100 40 1002 hurdat_epa main 884 884 O_____________ hurdat_epa EP171992 10.4000 -105.100 TS 40 1002 0 13 284
1992247N10258 1992 81 EP MM ORLENE 1992-09-03 09:00:00 TS 10.5498 -105.735 main 902 895 P_____________ EP171992 10.5498 -105.735 TS 45 1000 0 13 283
1992247N10258 1992 81 EP MM ORLENE 1992-09-03 12:00:00 TS 10.7000 -106.400 50 999 hurdat_epa main 906 903 O_____________ hurdat_epa EP171992 10.7000 -106.400 TS 50 999 0 14 283
1992247N10258 1992 81 EP MM ORLENE 1992-09-03 15:00:00 TS 10.8574 -107.128 main 914 914 P_____________ EP171992 10.8574 -107.128 TS 57 994 0 15 282
1992247N10258 1992 81 EP MM ORLENE 1992-09-03 18:00:00 TS 11.0000 -107.900 65 989 hurdat_epa main 944 944 O_____________ hurdat_epa EP171992 11.0000 -107.900 HU 65 989 1 16 279
1992247N10258 1992 81 EP MM ORLENE 1992-09-03 21:00:00 TS 11.1073 -108.693 main 980 980 P_____________ EP171992 11.1073 -108.693 HU 70 985 1 16 277
1992247N10258 1992 81 EP MM ORLENE 1992-09-04 00:00:00 TS 11.2000 -109.500 75 981 hurdat_epa main 1023 1023 O_____________ hurdat_epa EP171992 11.2000 -109.500 HU 75 981 1 16 277
1992247N10258 1992 81 EP MM ORLENE 1992-09-04 03:00:00 TS 11.2998 -110.300 main 1062 1062 P_____________ EP171992 11.2998 -110.300 HU 80 978 1 16 277
1992247N10258 1992 81 EP MM ORLENE 1992-09-04 06:00:00 TS 11.4000 -111.100 85 975 hurdat_epa main 1103 1103 O_____________ hurdat_epa EP171992 11.4000 -111.100 HU 85 975 2 16 277
1992247N10258 1992 81 EP MM ORLENE 1992-09-04 09:00:00 TS 11.4923 -111.908 main 1149 1149 P_____________ EP171992 11.4923 -111.908 HU 90 970 2 16 277
1992247N10258 1992 81 EP MM ORLENE 1992-09-04 12:00:00 TS 11.6000 -112.700 95 965 hurdat_epa main 1200 1200 O_____________ hurdat_epa EP171992 11.6000 -112.700 HU 95 965 2 15 280
1992247N10258 1992 81 EP MM ORLENE 1992-09-04 15:00:00 TS 11.7497 -113.450 main 1245 1245 P_____________ EP171992 11.7497 -113.450 HU 100 960 3 15 282
1992247N10258 1992 81 EP MM ORLENE 1992-09-04 18:00:00 TS 11.9000 -114.200 105 956 hurdat_epa main 1291 1291 O_____________ hurdat_epa EP171992 11.9000 -114.200 HU 105 956 3 15 279
1992247N10258 1992 81 EP MM ORLENE 1992-09-04 21:00:00 TS 11.9924 -115.000 main 1329 1329 P_____________ EP171992 11.9924 -115.000 HU 107 953 3 16 277
1992247N10258 1992 81 EP MM ORLENE 1992-09-05 00:00:00 TS 12.1000 -115.800 110 951 hurdat_epa main 1355 1355 O_____________ hurdat_epa EP171992 12.1000 -115.800 HU 110 951 3 16 281
1992247N10258 1992 81 EP MM ORLENE 1992-09-05 03:00:00 TS 12.2847 -116.558 main 1376 1376 P_____________ EP171992 12.2847 -116.558 HU 112 949 3 15 285
1992247N10258 1992 81 EP MM ORLENE 1992-09-05 06:00:00 TS 12.5000 -117.300 115 947 hurdat_epa main 1396 1396 O_____________ hurdat_epa EP171992 12.5000 -117.300 HU 115 947 4 15 286
1992247N10258 1992 81 EP MM ORLENE 1992-09-05 09:00:00 TS 12.6923 -118.050 main 1426 1426 P_____________ EP171992 12.6923 -118.050 HU 117 945 4 15 285
1992247N10258 1992 81 EP MM ORLENE 1992-09-05 12:00:00 TS 12.9000 -118.800 120 943 hurdat_epa main 1454 1454 O_____________ hurdat_epa EP171992 12.9000 -118.800 HU 120 943 4 15 287
1992247N10258 1992 81 EP MM ORLENE 1992-09-05 15:00:00 TS 13.1348 -119.558 main 1493 1484 P_____________ EP171992 13.1348 -119.558 HU 120 941 4 15 289
1992247N10258 1992 81 EP MM ORLENE 1992-09-05 18:00:00 TS 13.4000 -120.300 120 939 hurdat_epa main 1520 1520 O_____________ hurdat_epa EP171992 13.4000 -120.300 HU 120 939 4 15 292
1992247N10258 1992 81 EP MM ORLENE 1992-09-05 21:00:00 TS 13.7072 -121.007 main 1543 1541 P_____________ EP171992 13.7072 -121.007 HU 122 937 4 15 294
1992247N10258 1992 81 EP MM ORLENE 1992-09-06 00:00:00 TS 14.0000 -121.700 125 936 hurdat_epa main 1562 1562 O_____________ hurdat_epa EP171992 14.0000 -121.700 HU 125 936 4 14 290
1992247N10258 1992 81 EP MM ORLENE 1992-09-06 03:00:00 TS 14.2073 -122.400 main 1593 1593 P_____________ EP171992 14.2073 -122.400 HU 125 935 4 14 286
1992247N10258 1992 81 EP MM ORLENE 1992-09-06 06:00:00 TS 14.4000 -123.100 125 934 hurdat_epa main 1627 1627 O_____________ hurdat_epa EP171992 14.4000 -123.100 HU 125 934 4 14 288
1992247N10258 1992 81 EP MM ORLENE 1992-09-06 09:00:00 TS 14.6424 -123.815 main 1664 1664 P_____________ EP171992 14.6424 -123.815 HU 125 934 4 14 290
1992247N10258 1992 81 EP MM ORLENE 1992-09-06 12:00:00 TS 14.9000 -124.500 125 935 hurdat_epa main 1695 1695 O_____________ hurdat_epa EP171992 14.9000 -124.500 HU 125 935 4 14 292
1992247N10258 1992 81 EP MM ORLENE 1992-09-06 15:00:00 TS 15.1497 -125.115 main 1728 1721 P_____________ EP171992 15.1497 -125.115 HU 125 935 4 13 293
1992247N10258 1992 81 EP MM ORLENE 1992-09-06 18:00:00 TS 15.4000 -125.700 125 936 hurdat_epa main 1756 1756 O_____________ hurdat_epa EP171992 15.4000 -125.700 HU 125 936 4 13 294
1992247N10258 1992 81 EP MM ORLENE 1992-09-06 21:00:00 TS 15.6499 -126.308 main 1784 1775 P_____________ EP171992 15.6499 -126.308 HU 125 936 4 13 293
1992247N10258 1992 81 EP MM ORLENE 1992-09-07 00:00:00 TS 15.9000 -126.900 125 937 hurdat_epa main 1800 1798 O_____________ hurdat_epa EP171992 15.9000 -126.900 HU 125 937 4 12 294
1992247N10258 1992 81 EP MM ORLENE 1992-09-07 03:00:00 TS 16.1498 -127.458 main 1826 1817 P_____________ EP171992 16.1498 -127.458 HU 122 938 4 12 295
1992247N10258 1992 81 EP MM ORLENE 1992-09-07 06:00:00 TS 16.4000 -128.000 120 940 hurdat_epa main 1838 1837 O_____________ hurdat_epa EP171992 16.4000 -128.000 HU 120 940 4 12 295
1992247N10258 1992 81 EP MM ORLENE 1992-09-07 09:00:00 TS 16.6499 -128.558 main 1868 1860 P_____________ EP171992 16.6499 -128.558 HU 117 944 4 12 295
1992247N10258 1992 81 EP MM ORLENE 1992-09-07 12:00:00 TS 16.9000 -129.100 115 948 hurdat_epa main 1883 1883 O_____________ hurdat_epa EP171992 16.9000 -129.100 HU 115 948 4 11 297
1992247N10258 1992 81 EP MM ORLENE 1992-09-07 15:00:00 TS 17.1573 -129.608 main 1901 1901 P_____________ EP171992 17.1573 -129.608 HU 112 950 3 11 298
1992247N10258 1992 81 EP MM ORLENE 1992-09-07 18:00:00 TS 17.4000 -130.100 110 953 hurdat_epa main 1927 1927 O_____________ hurdat_epa EP171992 17.4000 -130.100 HU 110 953 3 10 296
1992247N10258 1992 81 EP MM ORLENE 1992-09-07 21:00:00 TS 17.6073 -130.593 main 1955 1955 P_____________ EP171992 17.6073 -130.593 HU 105 956 3 10 293
1992247N10258 1992 81 EP MM ORLENE 1992-09-08 00:00:00 TS 17.8000 -131.100 100 960 hurdat_epa main 1983 1983 O_____________ hurdat_epa EP171992 17.8000 -131.100 HU 100 960 3 11 292
1992247N10258 1992 81 EP MM ORLENE 1992-09-08 03:00:00 TS 18.0075 -131.657 main 2021 2021 P_____________ EP171992 18.0075 -131.657 HU 97 962 3 11 291
1992247N10258 1992 81 EP MM ORLENE 1992-09-08 06:00:00 TS 18.2000 -132.200 95 965 hurdat_epa main 2052 2052 O_____________ hurdat_epa EP171992 18.2000 -132.200 HU 95 965 2 10 290
1992247N10258 1992 81 EP MM ORLENE 1992-09-08 09:00:00 TS 18.3573 -132.673 main 2083 2083 P_____________ EP171992 18.3573 -132.673 HU 90 969 2 9 289
1992247N10258 1992 81 EP MM ORLENE 1992-09-08 12:00:00 TS 18.5000 -133.100 85 974 hurdat_epa main 2113 2113 O_____________ hurdat_epa EP171992 18.5000 -133.100 HU 85 974 2 9 290
1992247N10258 1992 81 EP MM ORLENE 1992-09-08 15:00:00 TS 18.6500 -133.530 main 2142 2142 P_____________ EP171992 18.6500 -133.530 HU 80 976 1 8 292
1992247N10258 1992 81 EP MM ORLENE 1992-09-08 18:00:00 TS 18.8000 -133.900 75 979 hurdat_epa main 2167 2162 O_____________ hurdat_epa EP171992 18.8000 -133.900 HU 75 979 1 7 296
1992247N10258 1992 81 EP MM ORLENE 1992-09-08 21:00:00 TS 18.9499 -134.188 main 2162 2140 P_____________ EP171992 18.9499 -134.188 HU 75 979 1 6 302
1992247N10258 1992 81 EP MM ORLENE 1992-09-09 00:00:00 TS 19.1000 -134.400 75 979 hurdat_epa main 2140 2118 O_____________ hurdat_epa EP171992 19.1000 -134.400 HU 75 979 1 5 309
1992247N10258 1992 81 EP MM ORLENE 1992-09-09 03:00:00 TS 19.2500 -134.573 main 2118 2106 P_____________ EP171992 19.2500 -134.573 HU 77 978 1 4 317
1992247N10258 1992 81 EP MM ORLENE 1992-09-09 06:00:00 TS 19.4000 -134.700 80 977 hurdat_epa main 2106 2095 O_____________ hurdat_epa EP171992 19.4000 -134.700 HU 80 977 1 4 322
1992247N10258 1992 81 EP MM ORLENE 1992-09-09 09:00:00 TS 19.5350 -134.808 main 2095 2083 P_____________ EP171992 19.5350 -134.808 HU 82 974 1 4 328
1992247N10258 1992 81 EP MM ORLENE 1992-09-09 12:00:00 TS 19.7000 -134.900 85 972 hurdat_epa main 2083 2072 O_____________ hurdat_epa EP171992 19.7000 -134.900 HU 85 972 2 4 336
1992247N10258 1992 81 EP MM ORLENE 1992-09-09 15:00:00 TS 19.9425 -135.000 main 2072 2060 P_____________ EP171992 19.9425 -135.000 HU 87 971 2 5 339
1992247N10258 1992 81 EP MM ORLENE 1992-09-09 18:00:00 TS 20.2000 -135.100 90 970 hurdat_epa main 2060 2049 O_____________ hurdat_epa EP171992 20.2000 -135.100 HU 90 970 2 5 338
1992247N10258 1992 81 EP MM ORLENE 1992-09-09 21:00:00 TS 20.4075 -135.200 main 2049 2039 P_____________ EP171992 20.4075 -135.200 HU 90 970 2 4 335
1992247N10258 1992 81 EP MM ORLENE 1992-09-10 00:00:00 TS 20.6000 -135.300 90 970 hurdat_epa main 2039 2028 O_____________ hurdat_epa EP171992 20.6000 -135.300 HU 90 970 2 4 335
1992247N10258 1992 81 EP MM ORLENE 1992-09-10 03:00:00 TS 20.8000 -135.393 main 2028 2018 P_____________ EP171992 20.8000 -135.393 HU 90 971 2 4 335
1992247N10258 1992 81 EP MM ORLENE 1992-09-10 06:00:00 TS 21.0000 -135.500 90 972 hurdat_epa main 2018 2008 O_____________ hurdat_epa EP171992 21.0000 -135.500 HU 90 972 2 5 330
1992247N10258 1992 81 EP MM ORLENE 1992-09-10 09:00:00 TS 21.2000 -135.643 main 2009 1988 P_____________ EP171992 21.2000 -135.643 HU 87 973 2 5 325
1992247N10258 1992 81 EP MM ORLENE 1992-09-10 12:00:00 TS 21.4000 -135.800 85 974 hurdat_epa main 1989 1979 O_____________ hurdat_epa EP171992 21.4000 -135.800 HU 85 974 2 5 325
1992247N10258 1992 81 EP MM ORLENE 1992-09-10 15:00:00 TS 21.6000 -135.950 main 1969 1960 P_____________ EP171992 21.6000 -135.950 HU 82 975 1 5 325
1992247N10258 1992 81 EP MM ORLENE 1992-09-10 18:00:00 TS 21.8000 -136.100 80 977 hurdat_epa main 1961 1951 O_____________ hurdat_epa EP171992 21.8000 -136.100 HU 80 977 1 5 326
1992247N10258 1992 81 EP MM ORLENE 1992-09-10 21:00:00 TS 22.0075 -136.250 main 1942 1933 P_____________ EP171992 22.0075 -136.250 HU 77 978 1 5 325
1992247N10258 1992 81 EP MM ORLENE 1992-09-11 00:00:00 TS 22.2000 -136.400 75 980 hurdat_epa main 1934 1924 O_____________ hurdat_epa EP171992 22.2000 -136.400 HU 75 980 1 4 324
1992247N10258 1992 81 EP MM ORLENE 1992-09-11 03:00:00 TS 22.3649 -136.535 main 1926 1907 P_____________ EP171992 22.3649 -136.535 HU 70 983 1 4 317
1992247N10258 1992 81 EP MM ORLENE 1992-09-11 06:00:00 TS 22.5000 -136.700 65 987 hurdat_epa main 1907 1887 O_____________ hurdat_epa EP171992 22.5000 -136.700 HU 65 987 1 4 305
1992247N10258 1992 81 EP MM ORLENE 1992-09-11 09:00:00 TS 22.6149 -136.920 main 1887 1858 P_____________ EP171992 22.6149 -136.920 HU 62 989 0 5 293
1992247N10258 1992 81 EP MM ORLENE 1992-09-11 12:00:00 TS 22.7000 -137.200 60 991 hurdat_epa main 1858 1830 O_____________ hurdat_epa EP171992 22.7000 -137.200 TS 60 991 0 6 286
1992247N10258 1992 81 EP MM ORLENE 1992-09-11 15:00:00 TS 22.7724 -137.520 main 1830 1789 P_____________ EP171992 22.7724 -137.520 TS 57 992 0 7 279
1992247N10258 1992 81 EP MM ORLENE 1992-09-11 18:00:00 TS 22.8000 -137.900 55 994 hurdat_epa main 1789 1749 O_____________ hurdat_epa EP171992 22.8000 -137.900 TS 55 994 0 7 269
1992247N10258 1992 81 EP MM ORLENE 1992-09-11 21:00:00 TS 22.7648 -138.313 main 1749 1696 P_____________ EP171992 22.7648 -138.313 TS 50 997 0 8 263
1992247N10258 1992 81 EP MM ORLENE 1992-09-12 00:00:00 TS 22.7000 -138.800 45 1000 hurdat_epa main 1696 1644 O_____________ hurdat_epa EP171992 22.7000 -138.800 TS 45 1000 0 10 262
1992247N10258 1992 81 EP MM ORLENE 1992-09-12 03:00:00 TS 22.6272 -139.355 main 1634 1573 P_____________ EP171992 22.6272 -139.355 TS 42 1001 0 11 265
1992247N10258 1992 81 EP CP ORLENE 1992-09-12 06:00:00 TS 22.6000 -140.000 40 1002 hurdat_epa main 1573 1504 O_____________ hurdat_epa EP171992 22.6000 -140.000 TS 40 1002 0 13 273
1992247N10258 1992 81 EP CP ORLENE 1992-09-12 09:00:00 TS 22.7041 -140.729 main 1504 1436 P_____________ EP171992 22.7000 -140.734 TS 35 1003 0 14 278
1992247N10258 1992 81 EP CP ORLENE 1992-09-12 12:00:00 TS 22.8000 -141.480 30 1005 hurdat_epa main 1426 1366 O_____________ hurdat_epa EP171992 22.8000 -141.500 TD 30 1005 -1 13 273
1992247N10258 1992 81 EP CP ORLENE 1992-09-12 15:00:00 TS 22.7792 -142.163 main 1356 1284 P_____________ EP171992 22.7792 -142.178 TD 30 1005 -1 13 266
1992247N10258 1992 81 EP CP ORLENE 1992-09-12 18:00:00 TS 22.7000 -142.900 30 1006 hurdat_epa main 1284 1202 O_____________ hurdat_epa EP171992 22.7000 -142.900 TD 30 1006 -1 15 264
1992247N10258 1992 81 EP CP ORLENE 1992-09-12 21:00:00 TS 22.6223 -143.764 main 1192 1110 P_____________ EP171992 22.6223 -143.762 TD 27 1006 -1 17 263
1992247N10258 1992 81 EP CP ORLENE 1992-09-13 00:00:00 TS 22.5000 -144.700 25 1007 hurdat_epa main 1100 1005 O_____________ hurdat_epa EP171992 22.5000 -144.700 TD 25 1007 -1 18 261
1992247N10258 1992 81 EP CP ORLENE 1992-09-13 03:00:00 TS 22.3371 -145.646 main 1005 910 P_____________ EP171992 22.3371 -145.642 TD 25 1007 -1 18 257
1992247N10258 1992 81 EP CP ORLENE 1992-09-13 06:00:00 TS 22.1000 -146.600 25 1007 hurdat_epa main 900 801 O_____________ hurdat_epa EP171992 22.1000 -146.600 TD 25 1007 -1 19 252
1992247N10258 1992 81 EP CP ORLENE 1992-09-13 09:00:00 TS 21.7649 -147.559 main 791 699 P_____________ EP171992 21.7650 -147.588 TD 25 1007 -1 19 248
1992247N10258 1992 81 EP CP ORLENE 1992-09-13 12:00:00 TS 21.4000 -148.450 25 1008 hurdat_epa main 699 610 O_____________ hurdat_epa EP171992 21.4000 -148.500 TD 25 1008 -1 17 247
1992247N10258 1992 81 EP CP ORLENE 1992-09-13 15:00:00 TS 21.0921 -149.231 main 610 531 P_____________ EP171992 21.0919 -149.259 TD 25 1008 -1 15 246
1992247N10258 1992 81 EP CP ORLENE 1992-09-13 18:00:00 TS 20.8000 -149.900 25 1009 hurdat_epa main 531 473 O_____________ hurdat_epa EP171992 20.8000 -149.900 TD 25 1009 -1 13 242
1992247N10258 1992 81 EP CP ORLENE 1992-09-13 21:00:00 TS 20.4918 -150.455 main 462 405 P_____________ EP171992 20.4919 -150.450 TD 25 1009 -1 12 240
1992247N10258 1992 81 EP CP ORLENE 1992-09-14 00:00:00 TS 20.2000 -151.000 25 1009 hurdat_epa main 405 337 O_____________ hurdat_epa EP171992 20.2000 -151.000 TD 25 1009 -1 13 244
1992247N10258 1992 81 EP CP ORLENE 1992-09-14 03:00:00 TS 19.9347 -151.648 main 337 262 P_____________ EP171992 19.9347 -151.655 TD 25 1009 -1 14 249
1992247N10258 1992 81 EP CP ORLENE 1992-09-14 06:00:00 TS 19.7000 -152.375 25 1010 hurdat_epa main 252 167 O_____________ hurdat_epa EP171992 19.7000 -152.400 TD 25 1010 -1 15 252
1992247N10258 1992 81 EP CP ORLENE 1992-09-14 09:00:00 TS 19.4703 -153.201 main 167 86 P_____________ EP171992 19.4705 -153.273 TD 25 1010 -1 16 255
1992247N10258 1992 81 EP CP ORLENE 1992-09-14 12:00:00 TS 19.3000 -154.000 25 1010 hurdat_epa main 86 38 O_____________ hurdat_epa EP171992 19.3000 -154.100 TD 25 1010 -1 14 260
1992247N10258 1992 81 EP CP ORLENE 1992-09-14 15:00:00 TS 19.2225 -154.649 main 38 10 P_____________ EP171992 19.2223 -154.717 TD 25 1010 -1 11 265
1992247N10258 1992 81 EP CP ORLENE 1992-09-14 18:00:00 TS 19.2000 -155.200 25 1010 hurdat_epa main 10 O_____________ hurdat_epa EP171992 19.2000 -155.200 TD 25 1010 -1 10 268

About IBTrACS Database

This database is a web-friendly format of International Best Track Archive for Climate Stewardship (IBTrACS), a global best track data archive curated by NOAA dating back to 1842.

Updated: 2021-10-27